sensor_id;sensor_type;location;lat;lon;timestamp;pressure;altitude;pressure_sealevel;temperature;humidity
14689;BME280;7432;48.728;9.154;2023-02-22T00:02:21;96484.25;;;5.54;87.20
14689;BME280;7432;48.728;9.154;2023-02-22T00:04:54;96491.25;;;5.52;87.78
14689;BME280;7432;48.728;9.154;2023-02-22T00:07:21;96483.03;;;5.48;87.95
14689;BME280;7432;48.728;9.154;2023-02-22T00:09:48;96487.63;;;5.54;87.89
14689;BME280;7432;48.728;9.154;2023-02-22T00:12:15;96485.19;;;5.53;87.97
14689;BME280;7432;48.728;9.154;2023-02-22T00:14:41;96478.03;;;5.47;87.74
14689;BME280;7432;48.728;9.154;2023-02-22T00:17:07;96480.31;;;5.50;87.80
14689;BME280;7432;48.728;9.154;2023-02-22T00:19:37;96476.28;;;5.47;88.01
14689;BME280;7432;48.728;9.154;2023-02-22T00:22:05;96466.31;;;5.44;87.91
14689;BME280;7432;48.728;9.154;2023-02-22T00:24:31;96472.91;;;5.37;87.94
14689;BME280;7432;48.728;9.154;2023-02-22T00:27:00;96466.31;;;5.34;87.92
14689;BME280;7432;48.728;9.154;2023-02-22T00:29:27;96462.53;;;5.38;87.94
14689;BME280;7432;48.728;9.154;2023-02-22T00:31:54;96471.41;;;5.34;88.69
14689;BME280;7432;48.728;9.154;2023-02-22T00:34:20;96475.31;;;5.38;88.11
14689;BME280;7432;48.728;9.154;2023-02-22T00:36:48;96468.88;;;5.34;87.85
14689;BME280;7432;48.728;9.154;2023-02-22T00:39:16;96464.25;;;5.28;88.24
14689;BME280;7432;48.728;9.154;2023-02-22T00:41:43;96462.78;;;5.26;87.97
14689;BME280;7432;48.728;9.154;2023-02-22T00:44:09;96462.91;;;5.24;88.25
14689;BME280;7432;48.728;9.154;2023-02-22T00:46:36;96466.97;;;5.27;88.33
14689;BME280;7432;48.728;9.154;2023-02-22T00:49:02;96466.25;;;5.25;87.93
14689;BME280;7432;48.728;9.154;2023-02-22T00:51:29;96461.84;;;5.27;88.36
14689;BME280;7432;48.728;9.154;2023-02-22T00:53:56;96458.06;;;5.21;88.56
14689;BME280;7432;48.728;9.154;2023-02-22T00:56:24;96460.63;;;5.21;88.53
14689;BME280;7432;48.728;9.154;2023-02-22T00:58:50;96456.84;;;5.16;88.92
14689;BME280;7432;48.728;9.154;2023-02-22T01:01:16;96453.03;;;5.10;88.70
14689;BME280;7432;48.728;9.154;2023-02-22T01:03:43;96450.31;;;5.02;89.23
14689;BME280;7432;48.728;9.154;2023-02-22T01:06:10;96449.63;;;5.00;89.73
14689;BME280;7432;48.728;9.154;2023-02-22T01:08:36;96448.56;;;5.03;89.03
14689;BME280;7432;48.728;9.154;2023-02-22T01:11:03;96436.84;;;5.00;89.48
14689;BME280;7432;48.728;9.154;2023-02-22T01:13:30;96443.72;;;5.00;89.69
14689;BME280;7432;48.728;9.154;2023-02-22T01:15:58;96435.75;;;4.93;90.30
14689;BME280;7432;48.728;9.154;2023-02-22T01:18:25;96435.25;;;4.99;90.05
14689;BME280;7432;48.728;9.154;2023-02-22T01:20:52;96434.03;;;4.94;89.98
14689;BME280;7432;48.728;9.154;2023-02-22T01:23:18;96435.75;;;4.93;89.71
14689;BME280;7432;48.728;9.154;2023-02-22T01:25:45;96410.47;;;4.81;89.67
14689;BME280;7432;48.728;9.154;2023-02-22T01:28:12;96430.50;;;4.85;89.31
14689;BME280;7432;48.728;9.154;2023-02-22T01:30:40;96432.63;;;4.80;89.44
14689;BME280;7432;48.728;9.154;2023-02-22T01:33:07;96437.16;;;4.76;89.99
14689;BME280;7432;48.728;9.154;2023-02-22T01:35:35;96436.59;;;4.73;89.64
14689;BME280;7432;48.728;9.154;2023-02-22T01:38:02;96426.63;;;4.70;90.14
14689;BME280;7432;48.728;9.154;2023-02-22T01:40:31;96422.34;;;4.70;89.53
14689;BME280;7432;48.728;9.154;2023-02-22T01:43:01;96419.69;;;4.72;89.62
14689;BME280;7432;48.728;9.154;2023-02-22T01:45:52;96417.66;;;4.75;89.64
14689;BME280;7432;48.728;9.154;2023-02-22T01:48:24;96412.94;;;4.71;89.59
14689;BME280;7432;48.728;9.154;2023-02-22T01:50:54;96402.75;;;4.71;89.74
14689;BME280;7432;48.728;9.154;2023-02-22T01:53:24;96404.00;;;4.76;89.15
14689;BME280;7432;48.728;9.154;2023-02-22T01:55:52;96399.44;;;4.80;89.71
14689;BME280;7432;48.728;9.154;2023-02-22T01:58:21;96402.94;;;4.79;89.99
14689;BME280;7432;48.728;9.154;2023-02-22T02:00:49;96399.94;;;4.74;89.95
14689;BME280;7432;48.728;9.154;2023-02-22T02:03:18;96393.75;;;4.67;90.39
14689;BME280;7432;48.728;9.154;2023-02-22T02:05:47;96398.56;;;4.70;90.67
14689;BME280;7432;48.728;9.154;2023-02-22T02:08:24;96390.16;;;4.69;90.23
14689;BME280;7432;48.728;9.154;2023-02-22T02:10:54;96384.91;;;4.71;90.61
14689;BME280;7432;48.728;9.154;2023-02-22T02:13:22;96388.25;;;4.71;90.12
14689;BME280;7432;48.728;9.154;2023-02-22T02:15:52;96380.13;;;4.77;90.29
14689;BME280;7432;48.728;9.154;2023-02-22T02:18:19;96374.69;;;4.71;90.02
14689;BME280;7432;48.728;9.154;2023-02-22T02:23:50;96382.66;;;4.77;90.50
14689;BME280;7432;48.728;9.154;2023-02-22T02:26:42;96374.44;;;4.74;90.52
14689;BME280;7432;48.728;9.154;2023-02-22T02:32:16;96367.63;;;4.84;90.72
14689;BME280;7432;48.728;9.154;2023-02-22T02:34:48;96367.22;;;4.79;90.25
14689;BME280;7432;48.728;9.154;2023-02-22T02:37:20;96371.66;;;4.77;90.97
14689;BME280;7432;48.728;9.154;2023-02-22T02:39:58;96365.41;;;4.70;90.84
14689;BME280;7432;48.728;9.154;2023-02-22T02:42:32;96362.88;;;4.70;91.08
14689;BME280;7432;48.728;9.154;2023-02-22T02:45:03;96361.66;;;4.64;91.58
14689;BME280;7432;48.728;9.154;2023-02-22T02:47:39;96361.38;;;4.67;91.71
14689;BME280;7432;48.728;9.154;2023-02-22T02:50:09;96354.94;;;4.63;91.24
14689;BME280;7432;48.728;9.154;2023-02-22T02:52:38;96352.78;;;4.59;91.64
14689;BME280;7432;48.728;9.154;2023-02-22T02:55:07;96350.34;;;4.57;91.43
14689;BME280;7432;48.728;9.154;2023-02-22T02:57:36;96350.47;;;4.56;91.89
14689;BME280;7432;48.728;9.154;2023-02-22T03:00:04;96345.38;;;4.56;92.05
14689;BME280;7432;48.728;9.154;2023-02-22T03:02:55;96346.44;;;4.53;92.30
14689;BME280;7432;48.728;9.154;2023-02-22T03:05:40;96343.34;;;4.50;91.81
14689;BME280;7432;48.728;9.154;2023-02-22T03:08:17;96339.41;;;4.46;91.57
14689;BME280;7432;48.728;9.154;2023-02-22T03:10:54;96334.94;;;4.38;91.35
14689;BME280;7432;48.728;9.154;2023-02-22T03:13:30;96335.88;;;4.37;92.47
14689;BME280;7432;48.728;9.154;2023-02-22T03:16:03;96333.03;;;4.31;91.87
14689;BME280;7432;48.728;9.154;2023-02-22T03:18:45;96334.09;;;4.28;92.63
14689;BME280;7432;48.728;9.154;2023-02-22T03:21:20;96328.19;;;4.28;92.40
14689;BME280;7432;48.728;9.154;2023-02-22T03:23:51;96330.78;;;4.16;92.39
14689;BME280;7432;48.728;9.154;2023-02-22T03:26:28;96329.56;;;4.11;92.65
14689;BME280;7432;48.728;9.154;2023-02-22T03:28:57;96320.44;;;4.08;93.76
14689;BME280;7432;48.728;9.154;2023-02-22T03:31:31;96322.47;;;4.14;92.68
14689;BME280;7432;48.728;9.154;2023-02-22T03:34:05;96328.06;;;4.08;92.56
14689;BME280;7432;48.728;9.154;2023-02-22T03:36:35;96326.91;;;4.12;93.08
14689;BME280;7432;48.728;9.154;2023-02-22T03:39:09;96324.13;;;4.04;93.10
14689;BME280;7432;48.728;9.154;2023-02-22T03:41:43;96316.06;;;3.99;92.11
14689;BME280;7432;48.728;9.154;2023-02-22T03:44:15;96315.81;;;4.02;92.26
14689;BME280;7432;48.728;9.154;2023-02-22T03:46:44;96316.78;;;4.01;92.91
14689;BME280;7432;48.728;9.154;2023-02-22T03:49:22;96310.91;;;3.90;92.82
14689;BME280;7432;48.728;9.154;2023-02-22T03:51:50;96325.38;;;3.89;93.04
14689;BME280;7432;48.728;9.154;2023-02-22T03:54:18;96314.09;;;3.82;93.10
14689;BME280;7432;48.728;9.154;2023-02-22T03:56:52;96324.63;;;3.78;93.37
14689;BME280;7432;48.728;9.154;2023-02-22T03:59:20;96322.47;;;3.73;93.73
14689;BME280;7432;48.728;9.154;2023-02-22T04:01:51;96314.25;;;3.70;93.07
14689;BME280;7432;48.728;9.154;2023-02-22T04:04:19;96319.34;;;3.70;93.11
14689;BME280;7432;48.728;9.154;2023-02-22T04:06:47;96318.41;;;3.71;92.58
14689;BME280;7432;48.728;9.154;2023-02-22T04:09:20;96318.41;;;3.71;93.15
14689;BME280;7432;48.728;9.154;2023-02-22T04:11:49;96316.50;;;3.63;93.37
14689;BME280;7432;48.728;9.154;2023-02-22T04:14:15;96316.72;;;3.60;93.14
14689;BME280;7432;48.728;9.154;2023-02-22T04:16:42;96317.97;;;3.66;93.35
14689;BME280;7432;48.728;9.154;2023-02-22T04:19:09;96313.81;;;3.65;92.48
14689;BME280;7432;48.728;9.154;2023-02-22T04:21:37;96315.78;;;3.61;92.98
14689;BME280;7432;48.728;9.154;2023-02-22T04:24:04;96310.34;;;3.66;93.21
14689;BME280;7432;48.728;9.154;2023-02-22T04:26:30;96310.44;;;3.64;92.99
14689;BME280;7432;48.728;9.154;2023-02-22T04:28:59;96311.84;;;3.68;92.19
14689;BME280;7432;48.728;9.154;2023-02-22T04:31:26;96306.06;;;3.66;92.66
14689;BME280;7432;48.728;9.154;2023-02-22T04:33:52;96308.47;;;3.68;91.88
14689;BME280;7432;48.728;9.154;2023-02-22T04:36:18;96310.66;;;3.72;91.74
14689;BME280;7432;48.728;9.154;2023-02-22T04:38:47;96314.38;;;3.68;92.27
14689;BME280;7432;48.728;9.154;2023-02-22T04:41:16;96311.31;;;3.53;93.13
14689;BME280;7432;48.728;9.154;2023-02-22T04:43:42;96312.84;;;3.45;92.46
14689;BME280;7432;48.728;9.154;2023-02-22T04:46:09;96305.69;;;3.39;92.22
14689;BME280;7432;48.728;9.154;2023-02-22T04:48:35;96314.69;;;3.43;92.71
14689;BME280;7432;48.728;9.154;2023-02-22T04:51:02;96292.78;;;3.20;93.33
14689;BME280;7432;48.728;9.154;2023-02-22T04:53:29;96312.06;;;3.33;93.45
14689;BME280;7432;48.728;9.154;2023-02-22T04:55:56;96309.97;;;3.38;93.08
14689;BME280;7432;48.728;9.154;2023-02-22T04:58:23;96305.25;;;3.34;92.38
14689;BME280;7432;48.728;9.154;2023-02-22T05:00:49;96296.59;;;3.25;92.96
14689;BME280;7432;48.728;9.154;2023-02-22T05:03:16;96305.41;;;3.21;93.21
14689;BME280;7432;48.728;9.154;2023-02-22T05:05:43;96307.81;;;3.23;92.68
14689;BME280;7432;48.728;9.154;2023-02-22T05:08:11;96301.16;;;3.11;94.01
14689;BME280;7432;48.728;9.154;2023-02-22T05:10:37;96304.28;;;3.14;93.16
14689;BME280;7432;48.728;9.154;2023-02-22T05:13:05;96300.91;;;3.14;94.25
14689;BME280;7432;48.728;9.154;2023-02-22T05:15:31;96304.75;;;3.08;93.30
14689;BME280;7432;48.728;9.154;2023-02-22T05:17:58;96304.75;;;3.08;93.94
14689;BME280;7432;48.728;9.154;2023-02-22T05:20:26;96301.25;;;3.09;93.49
14689;BME280;7432;48.728;9.154;2023-02-22T05:22:54;96301.84;;;3.02;93.66
14689;BME280;7432;48.728;9.154;2023-02-22T05:25:20;96297.81;;;2.99;94.00
14689;BME280;7432;48.728;9.154;2023-02-22T05:27:50;96297.69;;;3.00;94.46
14689;BME280;7432;48.728;9.154;2023-02-22T05:30:20;96293.31;;;3.03;94.63
14689;BME280;7432;48.728;9.154;2023-02-22T05:32:48;96286.59;;;3.02;93.85
14689;BME280;7432;48.728;9.154;2023-02-22T05:35:15;96298.41;;;3.03;94.17
14689;BME280;7432;48.728;9.154;2023-02-22T05:37:41;96291.06;;;3.09;93.65
14689;BME280;7432;48.728;9.154;2023-02-22T05:40:08;96289.69;;;3.16;93.90
14689;BME280;7432;48.728;9.154;2023-02-22T05:42:35;96281.47;;;3.13;93.74
14689;BME280;7432;48.728;9.154;2023-02-22T05:45:01;96282.41;;;3.12;93.03
14689;BME280;7432;48.728;9.154;2023-02-22T05:47:29;96285.53;;;3.04;93.20
14689;BME280;7432;48.728;9.154;2023-02-22T05:49:56;96285.22;;;3.09;93.22
14689;BME280;7432;48.728;9.154;2023-02-22T05:52:22;96286.13;;;3.08;93.76
14689;BME280;7432;48.728;9.154;2023-02-22T05:54:48;96272.00;;;3.15;92.88
14689;BME280;7432;48.728;9.154;2023-02-22T05:57:15;96272.22;;;3.12;93.23
14689;BME280;7432;48.728;9.154;2023-02-22T05:59:41;96273.50;;;3.06;94.00
14689;BME280;7432;48.728;9.154;2023-02-22T06:02:08;96276.75;;;3.08;93.92
14689;BME280;7432;48.728;9.154;2023-02-22T06:04:36;96272.50;;;3.09;93.64
14689;BME280;7432;48.728;9.154;2023-02-22T06:07:02;96267.41;;;3.09;94.31
14689;BME280;7432;48.728;9.154;2023-02-22T06:09:29;96264.88;;;3.09;94.44
14689;BME280;7432;48.728;9.154;2023-02-22T06:11:55;96270.06;;;3.07;93.99
14689;BME280;7432;48.728;9.154;2023-02-22T06:14:22;96274.66;;;3.13;93.36
14689;BME280;7432;48.728;9.154;2023-02-22T06:16:51;96276.53;;;3.11;93.32
14689;BME280;7432;48.728;9.154;2023-02-22T06:19:18;96274.66;;;3.13;94.16
14689;BME280;7432;48.728;9.154;2023-02-22T06:21:49;96277.78;;;3.17;93.80
14689;BME280;7432;48.728;9.154;2023-02-22T06:24:15;96281.09;;;3.17;93.74
14689;BME280;7432;48.728;9.154;2023-02-22T06:26:42;96280.78;;;3.22;93.92
14689;BME280;7432;48.728;9.154;2023-02-22T06:29:08;96288.41;;;3.22;93.70
14689;BME280;7432;48.728;9.154;2023-02-22T06:31:34;96283.97;;;3.35;94.18
14689;BME280;7432;48.728;9.154;2023-02-22T06:34:01;96287.88;;;3.39;93.47
14689;BME280;7432;48.728;9.154;2023-02-22T06:36:28;96282.06;;;3.48;92.36
14689;BME280;7432;48.728;9.154;2023-02-22T06:38:57;96280.47;;;3.47;93.40
14689;BME280;7432;48.728;9.154;2023-02-22T06:41:23;96289.31;;;3.52;92.37
14689;BME280;7432;48.728;9.154;2023-02-22T06:43:49;96291.94;;;3.62;92.26
14689;BME280;7432;48.728;9.154;2023-02-22T06:46:16;96285.88;;;3.74;91.51
14689;BME280;7432;48.728;9.154;2023-02-22T06:48:43;96293.09;;;3.90;91.32
14689;BME280;7432;48.728;9.154;2023-02-22T06:51:10;96291.16;;;4.03;90.96
14689;BME280;7432;48.728;9.154;2023-02-22T06:53:36;96289.34;;;4.14;91.12
14689;BME280;7432;48.728;9.154;2023-02-22T06:56:05;96295.63;;;4.31;90.16
14689;BME280;7432;48.728;9.154;2023-02-22T06:58:31;96295.78;;;4.39;89.69
14689;BME280;7432;48.728;9.154;2023-02-22T07:00:57;96297.13;;;4.43;89.23
14689;BME280;7432;48.728;9.154;2023-02-22T07:03:25;96296.13;;;4.55;89.13
14689;BME280;7432;48.728;9.154;2023-02-22T07:05:51;96277.88;;;4.60;89.00
14689;BME280;7432;48.728;9.154;2023-02-22T07:08:19;96302.28;;;4.83;89.02
14689;BME280;7432;48.728;9.154;2023-02-22T07:10:46;96307.44;;;5.02;88.43
14689;BME280;7432;48.728;9.154;2023-02-22T07:13:15;96296.16;;;5.14;88.23
14689;BME280;7432;48.728;9.154;2023-02-22T07:15:42;96297.56;;;5.37;88.04
14689;BME280;7432;48.728;9.154;2023-02-22T07:18:09;96297.84;;;5.54;87.59
14689;BME280;7432;48.728;9.154;2023-02-22T07:20:36;96295.00;;;5.66;87.45
14689;BME280;7432;48.728;9.154;2023-02-22T07:23:03;96287.75;;;5.90;86.91
14689;BME280;7432;48.728;9.154;2023-02-22T07:25:30;96297.56;;;6.14;86.52
14689;BME280;7432;48.728;9.154;2023-02-22T07:27:57;96301.25;;;6.39;85.39
14689;BME280;7432;48.728;9.154;2023-02-22T07:30:27;96301.69;;;6.62;85.21
14689;BME280;7432;48.728;9.154;2023-02-22T07:32:55;96296.88;;;6.86;83.84
14689;BME280;7432;48.728;9.154;2023-02-22T07:35:24;96295.66;;;7.17;83.31
14689;BME280;7432;48.728;9.154;2023-02-22T07:37:51;96292.31;;;7.52;81.25
14689;BME280;7432;48.728;9.154;2023-02-22T07:40:18;96289.53;;;7.63;80.29
14689;BME280;7432;48.728;9.154;2023-02-22T07:42:52;96298.66;;;8.01;79.92
14689;BME280;7432;48.728;9.154;2023-02-22T07:45:20;96305.66;;;8.34;77.76
14689;BME280;7432;48.728;9.154;2023-02-22T07:47:48;96301.81;;;8.64;76.72
14689;BME280;7432;48.728;9.154;2023-02-22T07:50:15;96309.03;;;9.02;75.58
14689;BME280;7432;48.728;9.154;2023-02-22T07:52:44;96312.53;;;9.43;73.17
14689;BME280;7432;48.728;9.154;2023-02-22T07:55:10;96309.56;;;9.72;72.49
14689;BME280;7432;48.728;9.154;2023-02-22T07:57:38;96305.91;;;10.15;71.84
14689;BME280;7432;48.728;9.154;2023-02-22T08:00:05;96307.72;;;10.69;69.29
14689;BME280;7432;48.728;9.154;2023-02-22T08:02:32;96307.94;;;11.37;66.78
14689;BME280;7432;48.728;9.154;2023-02-22T08:04:59;96302.78;;;12.51;63.65
14689;BME280;7432;48.728;9.154;2023-02-22T08:07:26;96318.09;;;13.97;59.40
14689;BME280;7432;48.728;9.154;2023-02-22T08:09:52;96318.41;;;15.80;53.84
14689;BME280;7432;48.728;9.154;2023-02-22T08:12:18;96321.38;;;18.03;48.32
14689;BME280;7432;48.728;9.154;2023-02-22T08:14:45;96316.16;;;20.16;43.40
14689;BME280;7432;48.728;9.154;2023-02-22T08:17:11;96327.34;;;21.79;39.31
14689;BME280;7432;48.728;9.154;2023-02-22T08:19:37;96316.97;;;22.79;37.25
14689;BME280;7432;48.728;9.154;2023-02-22T08:22:05;96315.41;;;23.16;36.36
14689;BME280;7432;48.728;9.154;2023-02-22T08:24:32;96323.13;;;23.06;36.48
14689;BME280;7432;48.728;9.154;2023-02-22T08:26:58;96325.00;;;23.66;35.21
14689;BME280;7432;48.728;9.154;2023-02-22T08:29:24;96332.38;;;24.17;34.14
14689;BME280;7432;48.728;9.154;2023-02-22T08:31:57;96323.28;;;24.61;32.97
14689;BME280;7432;48.728;9.154;2023-02-22T08:34:24;96321.38;;;24.89;32.24
14689;BME280;7432;48.728;9.154;2023-02-22T08:36:50;96328.91;;;25.12;31.96
14689;BME280;7432;48.728;9.154;2023-02-22T08:39:18;96331.09;;;26.02;29.79
14689;BME280;7432;48.728;9.154;2023-02-22T08:41:44;96319.81;;;26.67;29.64
14689;BME280;7432;48.728;9.154;2023-02-22T08:44:11;96330.09;;;27.09;28.69
14689;BME280;7432;48.728;9.154;2023-02-22T08:46:37;96329.50;;;27.96;28.54
14689;BME280;7432;48.728;9.154;2023-02-22T08:49:04;96334.75;;;28.84;27.25
14689;BME280;7432;48.728;9.154;2023-02-22T08:51:33;96328.53;;;28.94;26.21
14689;BME280;7432;48.728;9.154;2023-02-22T08:54:00;96323.75;;;29.24;26.05
14689;BME280;7432;48.728;9.154;2023-02-22T08:56:28;96325.13;;;28.59;26.47
14689;BME280;7432;48.728;9.154;2023-02-22T08:58:55;96322.00;;;27.64;27.36
14689;BME280;7432;48.728;9.154;2023-02-22T09:01:21;96327.50;;;26.28;29.20
14689;BME280;7432;48.728;9.154;2023-02-22T09:03:48;96319.75;;;25.24;30.10
14689;BME280;7432;48.728;9.154;2023-02-22T09:06:15;96320.09;;;24.91;30.94
14689;BME280;7432;48.728;9.154;2023-02-22T09:08:41;96325.53;;;25.83;29.83
14689;BME280;7432;48.728;9.154;2023-02-22T09:11:08;96323.53;;;26.66;29.33
14689;BME280;7432;48.728;9.154;2023-02-22T09:13:35;96325.78;;;27.43;28.11
14689;BME280;7432;48.728;9.154;2023-02-22T09:16:02;96313.34;;;27.39;28.33
14689;BME280;7432;48.728;9.154;2023-02-22T09:18:28;96312.41;;;26.64;28.73
14689;BME280;7432;48.728;9.154;2023-02-22T09:20:55;96315.03;;;24.85;30.83
14689;BME280;7432;48.728;9.154;2023-02-22T09:23:21;96308.81;;;22.75;33.42
14689;BME280;7432;48.728;9.154;2023-02-22T09:25:48;96315.09;;;21.05;35.19
14689;BME280;7432;48.728;9.154;2023-02-22T09:28:15;96312.00;;;19.67;37.88
14689;BME280;7432;48.728;9.154;2023-02-22T09:30:42;96307.59;;;18.77;39.31
14689;BME280;7432;48.728;9.154;2023-02-22T09:33:12;96308.22;;;18.23;40.62
14689;BME280;7432;48.728;9.154;2023-02-22T09:35:41;96297.69;;;17.80;41.58
14689;BME280;7432;48.728;9.154;2023-02-22T09:38:11;96299.06;;;17.38;42.89
14689;BME280;7432;48.728;9.154;2023-02-22T09:40:40;96298.03;;;16.95;43.42
14689;BME280;7432;48.728;9.154;2023-02-22T09:43:23;96291.91;;;16.63;43.74
14689;BME280;7432;48.728;9.154;2023-02-22T09:46:04;96292.69;;;16.24;44.40
14689;BME280;7432;48.728;9.154;2023-02-22T09:48:41;96295.50;;;16.23;44.53
14689;BME280;7432;48.728;9.154;2023-02-22T09:51:14;96290.81;;;15.12;48.36
14689;BME280;7432;48.728;9.154;2023-02-22T09:53:44;96293.75;;;15.02;48.66
14689;BME280;7432;48.728;9.154;2023-02-22T09:56:14;96291.75;;;14.70;50.09
14689;BME280;7432;48.728;9.154;2023-02-22T09:58:44;96289.97;;;14.36;50.41
14689;BME280;7432;48.728;9.154;2023-02-22T10:01:21;96290.25;;;14.26;51.34
14689;BME280;7432;48.728;9.154;2023-02-22T10:03:55;96288.50;;;14.06;52.41
14689;BME280;7432;48.728;9.154;2023-02-22T10:06:25;96300.31;;;13.94;52.10
14689;BME280;7432;48.728;9.154;2023-02-22T10:08:54;96300.53;;;13.92;52.82
14689;BME280;7432;48.728;9.154;2023-02-22T10:11:34;96289.31;;;14.06;51.70
14689;BME280;7432;48.728;9.154;2023-02-22T10:14:20;96295.91;;;14.09;52.15
14689;BME280;7432;48.728;9.154;2023-02-22T10:16:57;96292.06;;;14.05;51.97
14689;BME280;7432;48.728;9.154;2023-02-22T10:19:31;96284.50;;;14.03;51.85
14689;BME280;7432;48.728;9.154;2023-02-22T10:22:20;96287.81;;;14.40;51.21
14689;BME280;7432;48.728;9.154;2023-02-22T10:24:57;96286.59;;;14.14;50.29
14689;BME280;7432;48.728;9.154;2023-02-22T10:27:29;96287.19;;;14.16;50.75
14689;BME280;7432;48.728;9.154;2023-02-22T10:30:01;96290.53;;;14.32;49.80
14689;BME280;7432;48.728;9.154;2023-02-22T10:32:40;96285.00;;;14.41;50.05
14689;BME280;7432;48.728;9.154;2023-02-22T10:35:16;96285.50;;;14.30;50.19
14689;BME280;7432;48.728;9.154;2023-02-22T10:37:45;96270.84;;;14.16;50.67
14689;BME280;7432;48.728;9.154;2023-02-22T10:40:15;96277.78;;;14.09;50.42
14689;BME280;7432;48.728;9.154;2023-02-22T10:42:43;96278.28;;;13.98;51.51
14689;BME280;7432;48.728;9.154;2023-02-22T10:45:20;96273.88;;;14.19;50.65
14689;BME280;7432;48.728;9.154;2023-02-22T10:47:54;96277.28;;;14.26;51.15
14689;BME280;7432;48.728;9.154;2023-02-22T10:50:23;96270.09;;;14.22;50.81
14689;BME280;7432;48.728;9.154;2023-02-22T10:52:51;96267.31;;;14.23;50.74
14689;BME280;7432;48.728;9.154;2023-02-22T10:55:19;96277.84;;;14.43;49.99
14689;BME280;7432;48.728;9.154;2023-02-22T10:57:48;96262.94;;;14.45;50.90
14689;BME280;7432;48.728;9.154;2023-02-22T11:00:18;96269.13;;;14.51;50.84
14689;BME280;7432;48.728;9.154;2023-02-22T11:02:53;96271.47;;;14.46;50.58
14689;BME280;7432;48.728;9.154;2023-02-22T11:05:30;96272.34;;;14.53;49.64
14689;BME280;7432;48.728;9.154;2023-02-22T11:08:15;96259.66;;;14.64;50.48
14689;BME280;7432;48.728;9.154;2023-02-22T11:10:42;96268.69;;;14.75;50.90
14689;BME280;7432;48.728;9.154;2023-02-22T11:13:23;96268.00;;;15.01;49.89
14689;BME280;7432;48.728;9.154;2023-02-22T11:15:51;96253.47;;;15.06;49.20
14689;BME280;7432;48.728;9.154;2023-02-22T11:18:24;96257.50;;;15.15;48.82
14689;BME280;7432;48.728;9.154;2023-02-22T11:20:59;96262.44;;;14.97;50.07
14689;BME280;7432;48.728;9.154;2023-02-22T11:23:27;96256.41;;;14.90;49.92
14689;BME280;7432;48.728;9.154;2023-02-22T11:26:01;96254.00;;;14.89;49.92
14689;BME280;7432;48.728;9.154;2023-02-22T11:28:29;96259.59;;;14.92;49.83
14689;BME280;7432;48.728;9.154;2023-02-22T11:30:58;96253.03;;;15.03;49.87
14689;BME280;7432;48.728;9.154;2023-02-22T11:33:35;96246.63;;;14.92;50.18
14689;BME280;7432;48.728;9.154;2023-02-22T11:36:03;96234.84;;;14.83;50.92
14689;BME280;7432;48.728;9.154;2023-02-22T11:38:35;96229.00;;;14.74;50.37
14689;BME280;7432;48.728;9.154;2023-02-22T11:41:13;96243.59;;;14.82;50.44
14689;BME280;7432;48.728;9.154;2023-02-22T11:43:40;96236.78;;;14.74;50.39
14689;BME280;7432;48.728;9.154;2023-02-22T11:46:11;96230.94;;;14.66;50.83
14689;BME280;7432;48.728;9.154;2023-02-22T11:48:42;96228.91;;;14.55;52.42
14689;BME280;7432;48.728;9.154;2023-02-22T11:51:25;96224.66;;;14.47;52.89
14689;BME280;7432;48.728;9.154;2023-02-22T11:54:10;96223.56;;;14.63;52.82
14689;BME280;7432;48.728;9.154;2023-02-22T11:56:39;96216.69;;;14.49;52.60
14689;BME280;7432;48.728;9.154;2023-02-22T11:59:17;96214.56;;;14.59;52.22
14689;BME280;7432;48.728;9.154;2023-02-22T12:01:50;96221.31;;;14.53;52.95
14689;BME280;7432;48.728;9.154;2023-02-22T12:04:47;96210.84;;;14.34;53.34
14689;BME280;7432;48.728;9.154;2023-02-22T12:07:27;96181.34;;;14.07;54.42
14689;BME280;7432;48.728;9.154;2023-02-22T12:10:03;96208.16;;;14.27;54.43
14689;BME280;7432;48.728;9.154;2023-02-22T12:12:42;96194.94;;;14.15;54.77
14689;BME280;7432;48.728;9.154;2023-02-22T12:15:20;96195.38;;;13.91;55.01
14689;BME280;7432;48.728;9.154;2023-02-22T12:17:51;96193.47;;;13.79;55.44
14689;BME280;7432;48.728;9.154;2023-02-22T12:20:25;96195.47;;;13.77;56.45
14689;BME280;7432;48.728;9.154;2023-02-22T12:22:58;96200.38;;;13.93;55.35
14689;BME280;7432;48.728;9.154;2023-02-22T12:25:28;96194.31;;;13.86;55.85
14689;BME280;7432;48.728;9.154;2023-02-22T12:27:59;96192.63;;;13.99;56.64
14689;BME280;7432;48.728;9.154;2023-02-22T12:30:30;96194.44;;;13.99;56.60
14689;BME280;7432;48.728;9.154;2023-02-22T12:32:59;96191.06;;;13.98;56.34
14689;BME280;7432;48.728;9.154;2023-02-22T12:35:32;96201.56;;;13.97;56.21
14689;BME280;7432;48.728;9.154;2023-02-22T12:38:02;96198.63;;;14.00;55.99
14689;BME280;7432;48.728;9.154;2023-02-22T12:40:34;96188.53;;;13.84;55.40
14689;BME280;7432;48.728;9.154;2023-02-22T12:43:09;96189.22;;;13.92;55.83
14689;BME280;7432;48.728;9.154;2023-02-22T12:45:43;96194.31;;;14.07;55.02
14689;BME280;7432;48.728;9.154;2023-02-22T12:48:24;96176.78;;;14.09;54.87
14689;BME280;7432;48.728;9.154;2023-02-22T12:50:55;96186.63;;;14.20;55.22
14689;BME280;7432;48.728;9.154;2023-02-22T12:53:27;96189.91;;;14.35;55.54
14689;BME280;7432;48.728;9.154;2023-02-22T12:56:04;96188.56;;;14.39;53.59
14689;BME280;7432;48.728;9.154;2023-02-22T12:58:45;96184.94;;;14.34;53.55
14689;BME280;7432;48.728;9.154;2023-02-22T13:01:17;96189.66;;;14.30;53.94
14689;BME280;7432;48.728;9.154;2023-02-22T13:03:45;96189.97;;;14.42;53.69
14689;BME280;7432;48.728;9.154;2023-02-22T13:06:23;96183.16;;;14.41;53.57
14689;BME280;7432;48.728;9.154;2023-02-22T13:09:01;96183.78;;;14.43;53.64
14689;BME280;7432;48.728;9.154;2023-02-22T13:11:35;96187.38;;;14.42;54.75
14689;BME280;7432;48.728;9.154;2023-02-22T13:14:27;96182.25;;;14.20;55.58
14689;BME280;7432;48.728;9.154;2023-02-22T13:17:00;96174.19;;;14.37;55.33
14689;BME280;7432;48.728;9.154;2023-02-22T13:19:37;96169.84;;;14.44;55.55
14689;BME280;7432;48.728;9.154;2023-02-22T13:22:11;96186.84;;;14.59;55.49
14689;BME280;7432;48.728;9.154;2023-02-22T13:24:48;96177.28;;;14.53;54.63
14689;BME280;7432;48.728;9.154;2023-02-22T13:27:19;96170.91;;;14.28;55.52
14689;BME280;7432;48.728;9.154;2023-02-22T13:29:53;96170.31;;;14.26;55.57
14689;BME280;7432;48.728;9.154;2023-02-22T13:32:30;96165.41;;;14.10;55.15
14689;BME280;7432;48.728;9.154;2023-02-22T13:35:13;96162.81;;;14.03;55.38
14689;BME280;7432;48.728;9.154;2023-02-22T13:38:13;96162.13;;;13.95;55.96
14689;BME280;7432;48.728;9.154;2023-02-22T13:40:59;96161.53;;;13.65;57.21